M/V Bugra Tomba — TCEJ — position and weather

sailwx.info

Track history (hours):
 
Tides and Currents Weather Stations Pressure Air Temp Water Temp Dewpoint Dewpoint Depression Visibility Wind Speed Wind Dir Waves Ship Positions

M/V Bugra Tomba

Last reported at 2014-Sep-23 13:13 UTC. Time now 2014-Sep-23 14:25 UTC.
Position N 41°16' E 029°04'.

Length 99 m; draft 3.4 m.

Type: Ship. MMSI: 271000025.

Date/timePositionNaut miles runAvg speedWind from/ knotsBaromVisibWave heightAir tempDewpointWater temp
2014-Sep-23 13:13N 41°16' E 029°04'  
2014-Sep-20 08:32N 40°60' E 028°60'4 4.0
2014-Sep-20 07:33N 40°58' E 028°55'0 0.0
2014-Sep-20 06:33N 40°58' E 028°55'0 0.0
2014-Sep-20 05:33N 40°58' E 028°55'0 0.0
2014-Sep-20 04:33N 40°58' E 028°55'0 0.0
2014-Sep-20 03:33N 40°58' E 028°55'0 0.0
2014-Sep-20 02:33N 40°58' E 028°55'0 0.0
2014-Sep-20 01:28N 40°58' E 028°55'0 0.0
2014-Sep-20 00:33N 40°58' E 028°55'0 0.0
2014-Sep-19 23:33N 40°58' E 028°55'0 0.0
2014-Sep-19 22:33N 40°58' E 028°55'0 0.0
2014-Sep-19 21:31N 40°58' E 028°55'0 0.0
2014-Sep-19 20:30N 40°58' E 028°55'7 7.2
2014-Sep-19 19:33N 40°55' E 029°03'7 7.3
2014-Sep-19 18:33N 40°52' E 029°12'0 0.0
2014-Sep-19 17:33N 40°52' E 029°12'3 2.6
2014-Sep-19 16:33N 40°51' E 029°15'0 0.5
2014-Sep-19 15:33N 40°51' E 029°15'1 0.8
2014-Sep-19 14:19N 40°50' E 029°16'0 0.1
2014-Sep-19 13:25N 40°50' E 029°16'0 0.0
2014-Sep-19 12:25N 40°50' E 029°16'0 0.1
2014-Sep-19 11:29N 40°50' E 029°16'0 0.0
2014-Sep-19 10:29N 40°50' E 029°16'0 0.0
2014-Sep-19 09:29N 40°50' E 029°16'0 0.0
2014-Sep-19 08:29N 40°50' E 029°16'0 0.1
2014-Sep-19 07:29N 40°50' E 029°16'0 0.0
2014-Sep-19 06:29N 40°50' E 029°16'0 0.0
2014-Sep-19 04:23N 40°50' E 029°16'0 0.0
2014-Sep-19 03:29N 40°50' E 029°16'0 0.0
2014-Sep-19 02:29N 40°50' E 029°16'0 0.0
2014-Sep-19 01:23N 40°50' E 029°16'0 0.0
2014-Sep-19 00:29N 40°50' E 029°16'0 0.0
2014-Sep-18 23:23N 40°50' E 029°16'0 0.0
2014-Sep-18 22:29N 40°50' E 029°16'0 0.0
2014-Sep-18 21:23N 40°50' E 029°16'0 0.0
2014-Sep-18 20:23N 40°50' E 029°16'0 0.0
2014-Sep-18 19:29N 40°50' E 029°16'0 0.0
2014-Sep-18 18:29N 40°50' E 029°16'0 0.0
2014-Sep-18 17:17N 40°50' E 029°16'0 0.0
2014-Sep-18 16:29N 40°50' E 029°16'0 0.0
2014-Sep-18 15:23N 40°50' E 029°16'0 0.0
2014-Sep-18 14:23N 40°50' E 029°16'0 0.0
2014-Sep-18 13:29N 40°50' E 029°16'0 0.0
2014-Sep-18 12:23N 40°50' E 029°16'0 0.0
2014-Sep-18 11:29N 40°50' E 029°16'0 0.0
2014-Sep-18 10:29N 40°50' E 029°16'0 0.0
2014-Sep-18 09:17N 40°50' E 029°16'0 0.0
2014-Sep-18 08:29N 40°50' E 029°16'0 0.0
2014-Sep-18 07:29N 40°50' E 029°16'0 0.0
2014-Sep-18 05:29N 40°50' E 029°16'0 0.0
2014-Sep-18 04:29N 40°50' E 029°16'0 0.0
2014-Sep-18 03:29N 40°50' E 029°16'0 0.0
2014-Sep-18 02:29N 40°50' E 029°16'0 0.0
2014-Sep-18 01:29N 40°50' E 029°16'0 0.0
2014-Sep-18 00:29N 40°50' E 029°16'0 0.0
2014-Sep-17 23:23N 40°50' E 029°16'0 0.0
2014-Sep-17 22:29N 40°50' E 029°16'0 0.0
2014-Sep-17 21:23N 40°50' E 029°16'0 0.0
2014-Sep-17 20:05N 40°50' E 029°16'0 0.0
2014-Sep-17 19:29N 40°50' E 029°16'0 0.0
2014-Sep-17 18:29N 40°50' E 029°16'0 0.0
2014-Sep-17 17:29N 40°50' E 029°16'0 0.0
2014-Sep-17 16:29N 40°50' E 029°16'0 0.0
2014-Sep-17 15:17N 40°50' E 029°16'0 0.0
2014-Sep-17 14:29N 40°50' E 029°16'0 0.0
2014-Sep-17 13:29N 40°50' E 029°16'0 0.0
2014-Sep-17 12:11N 40°50' E 029°16'0 0.0
2014-Sep-17 11:29N 40°50' E 029°16'0 0.0
2014-Sep-17 10:29N 40°50' E 029°16'0 0.0
2014-Sep-17 09:17N 40°50' E 029°16'0 0.0
2014-Sep-17 08:29N 40°50' E 029°16'0 0.0
2014-Sep-17 07:29N 40°50' E 029°16'0 0.0
2014-Sep-17 06:29N 40°50' E 029°16'0 0.0
2014-Sep-17 05:29N 40°50' E 029°16'0 0.0
2014-Sep-17 04:11N 40°50' E 029°16'0 0.0
2014-Sep-17 03:29N 40°50' E 029°16'0 0.0
2014-Sep-17 02:29N 40°50' E 029°16'0 0.0
2014-Sep-17 01:23N 40°50' E 029°16'0 0.0
2014-Sep-17 00:17N 40°50' E 029°16'0 0.0
2014-Sep-16 23:29N 40°50' E 029°16'0 0.0
2014-Sep-16 22:29N 40°50' E 029°16'0 0.0
2014-Sep-16 21:29N 40°50' E 029°16'0 0.0
2014-Sep-16 20:23N 40°50' E 029°16'0 0.0
2014-Sep-16 19:11N 40°50' E 029°16'0 0.0
2014-Sep-16 18:17N 40°50' E 029°16'0 0.0
2014-Sep-16 17:29N 40°50' E 029°16'0 0.0
2014-Sep-16 16:29N 40°50' E 029°16'0 0.0
2014-Sep-16 15:29N 40°50' E 029°16'0 0.0
2014-Sep-16 14:29N 40°50' E 029°16'0 0.0
2014-Sep-16 13:23N 40°50' E 029°16'0 0.0
2014-Sep-16 12:29N 40°50' E 029°16'0 0.0
2014-Sep-16 11:29N 40°50' E 029°16'0 0.0
2014-Sep-16 10:29N 40°50' E 029°16'0 0.0
2014-Sep-16 09:23N 40°50' E 029°16'0 0.0
2014-Sep-16 08:23N 40°50' E 029°16'0 0.0
2014-Sep-16 07:17N 40°50' E 029°16'0 0.0
2014-Sep-16 06:17N 40°50' E 029°16'0 0.0
2014-Sep-16 05:29N 40°50' E 029°16'0 0.0
2014-Sep-16 04:29N 40°50' E 029°16'0 0.0
2014-Sep-16 03:23N 40°50' E 029°16'0 0.0
2014-Sep-16 02:23N 40°50' E 029°16'0 0.0
2014-Sep-16 01:29N 40°50' E 029°16'0 0.0
2014-Sep-16 00:29N 40°50' E 029°16'0 0.0
2014-Sep-15 23:23N 40°50' E 029°16'0 0.0
2014-Sep-15 22:29N 40°50' E 029°16'0 0.0
2014-Sep-15 21:17N 40°50' E 029°16'0 0.0
2014-Sep-15 20:29N 40°50' E 029°16'0 0.0
2014-Sep-15 19:29N 40°50' E 029°16'0 0.0
2014-Sep-15 18:29N 40°50' E 029°16'0 0.0
2014-Sep-15 17:29N 40°50' E 029°16'0 0.0
2014-Sep-15 16:23N 40°50' E 029°16'0 0.0
2014-Sep-15 15:23N 40°50' E 029°16'0 0.0
2014-Sep-15 14:29N 40°50' E 029°16'0 0.0
2014-Sep-15 13:23N 40°50' E 029°16'0 0.0
2014-Sep-15 12:29N 40°50' E 029°16'0 0.0
2014-Sep-15 11:29N 40°50' E 029°16'0 0.0
2014-Sep-15 10:05N 40°50' E 029°16'0 0.0
2014-Sep-15 09:29N 40°50' E 029°16'0 0.0
2014-Sep-15 08:23N 40°50' E 029°16'0 0.0
2014-Sep-15 07:17N 40°50' E 029°16'0 0.0
2014-Sep-15 06:29N 40°50' E 029°16'0 0.0
2014-Sep-15 05:29N 40°50' E 029°16'0 0.0
2014-Sep-15 04:29N 40°50' E 029°16'0 0.0
2014-Sep-15 03:23N 40°50' E 029°16'0 0.0
2014-Sep-15 02:17N 40°50' E 029°16'0 0.0
2014-Sep-15 01:23N 40°50' E 029°16'0 0.0
2014-Sep-15 00:23N 40°50' E 029°16'0 0.0
2014-Sep-14 23:23N 40°50' E 029°16'0 0.0
2014-Sep-14 22:23N 40°50' E 029°16'0 0.0
2014-Sep-14 21:17N 40°50' E 029°16'0 0.0
2014-Sep-14 20:23N 40°50' E 029°16'0 0.0
2014-Sep-14 19:29N 40°50' E 029°16'0 0.0
2014-Sep-14 18:29N 40°50' E 029°16'0 0.0
2014-Sep-14 17:05N 40°50' E 029°16'0 0.0
2014-Sep-14 16:29N 40°50' E 029°16'0 0.0
2014-Sep-14 15:29N 40°50' E 029°16'0 0.0
2014-Sep-14 14:23N 40°50' E 029°16'0 0.0
2014-Sep-14 13:23N 40°50' E 029°16'0 0.0
2014-Sep-14 12:29N 40°50' E 029°16'0 0.0
2014-Sep-14 11:29N 40°50' E 029°16'0 0.0
2014-Sep-14 10:29N 40°50' E 029°16'0 0.0
2014-Sep-14 09:17N 40°50' E 029°16'0 0.0
2014-Sep-14 08:05N 40°50' E 029°16'0 0.0
2014-Sep-14 06:23N 40°50' E 029°16'0 0.0
2014-Sep-14 05:29N 40°50' E 029°16'0 0.0
2014-Sep-14 04:11N 40°50' E 029°16'0 0.0
2014-Sep-14 03:29N 40°50' E 029°16'0 0.0
2014-Sep-14 02:29N 40°50' E 029°16'0 0.0
2014-Sep-14 01:23N 40°50' E 029°16'0 0.0
2014-Sep-13 21:29N 40°50' E 029°16'0 0.0
2014-Sep-13 20:29N 40°50' E 029°16'0 0.0
2014-Sep-13 19:29N 40°50' E 029°16'0 0.0
2014-Sep-13 18:29N 40°50' E 029°16'0 0.0
2014-Sep-13 17:29N 40°50' E 029°16'0 0.0
2014-Sep-13 16:05N 40°50' E 029°16'0 0.0
2014-Sep-13 15:29N 40°50' E 029°16'0 0.0
2014-Sep-13 14:23N 40°50' E 029°16'0 0.0
2014-Sep-13 13:23N 40°50' E 029°16'  
Track history (hours):
 
Tides and Currents Weather Stations Pressure Air Temp Water Temp Dewpoint Dewpoint Depression Visibility Wind Speed Wind Dir Waves Ship Positions

M/V Bugra Tomba

Last reported at 2014-Sep-23 13:13 UTC. Time now 2014-Sep-23 14:25 UTC.
Position N 41°16' E 029°04'.

Length 99 m; draft 3.4 m.

Type: Ship. MMSI: 271000025.

Date/timePositionNaut miles runAvg speedWind from/ knotsBaromVisibWave heightAir tempDewpointWater temp
2014-Sep-23 13:13N 41°16' E 029°04'  
2014-Sep-20 08:32N 40°60' E 028°60'4 4.0
2014-Sep-20 07:33N 40°58' E 028°55'0 0.0
2014-Sep-20 06:33N 40°58' E 028°55'0 0.0
2014-Sep-20 05:33N 40°58' E 028°55'0 0.0
2014-Sep-20 04:33N 40°58' E 028°55'0 0.0
2014-Sep-20 03:33N 40°58' E 028°55'0 0.0
2014-Sep-20 02:33N 40°58' E 028°55'0 0.0
2014-Sep-20 01:28N 40°58' E 028°55'0 0.0
2014-Sep-20 00:33N 40°58' E 028°55'0 0.0
2014-Sep-19 23:33N 40°58' E 028°55'0 0.0
2014-Sep-19 22:33N 40°58' E 028°55'0 0.0
2014-Sep-19 21:31N 40°58' E 028°55'0 0.0
2014-Sep-19 20:30N 40°58' E 028°55'7 7.2
2014-Sep-19 19:33N 40°55' E 029°03'7 7.3
2014-Sep-19 18:33N 40°52' E 029°12'0 0.0
2014-Sep-19 17:33N 40°52' E 029°12'3 2.6
2014-Sep-19 16:33N 40°51' E 029°15'0 0.5
2014-Sep-19 15:33N 40°51' E 029°15'1 0.8
2014-Sep-19 14:19N 40°50' E 029°16'0 0.1
2014-Sep-19 13:25N 40°50' E 029°16'0 0.0
2014-Sep-19 12:25N 40°50' E 029°16'0 0.1
2014-Sep-19 11:29N 40°50' E 029°16'0 0.0
2014-Sep-19 10:29N 40°50' E 029°16'0 0.0
2014-Sep-19 09:29N 40°50' E 029°16'0 0.0
2014-Sep-19 08:29N 40°50' E 029°16'0 0.1
2014-Sep-19 07:29N 40°50' E 029°16'0 0.0
2014-Sep-19 06:29N 40°50' E 029°16'0 0.0
2014-Sep-19 04:23N 40°50' E 029°16'0 0.0
2014-Sep-19 03:29N 40°50' E 029°16'0 0.0
2014-Sep-19 02:29N 40°50' E 029°16'0 0.0
2014-Sep-19 01:23N 40°50' E 029°16'0 0.0
2014-Sep-19 00:29N 40°50' E 029°16'0 0.0
2014-Sep-18 23:23N 40°50' E 029°16'0 0.0
2014-Sep-18 22:29N 40°50' E 029°16'0 0.0
2014-Sep-18 21:23N 40°50' E 029°16'0 0.0
2014-Sep-18 20:23N 40°50' E 029°16'0 0.0
2014-Sep-18 19:29N 40°50' E 029°16'0 0.0
2014-Sep-18 18:29N 40°50' E 029°16'0 0.0
2014-Sep-18 17:17N 40°50' E 029°16'0 0.0
2014-Sep-18 16:29N 40°50' E 029°16'0 0.0
2014-Sep-18 15:23N 40°50' E 029°16'0 0.0
2014-Sep-18 14:23N 40°50' E 029°16'0 0.0
2014-Sep-18 13:29N 40°50' E 029°16'0 0.0
2014-Sep-18 12:23N 40°50' E 029°16'0 0.0
2014-Sep-18 11:29N 40°50' E 029°16'0 0.0
2014-Sep-18 10:29N 40°50' E 029°16'0 0.0
2014-Sep-18 09:17N 40°50' E 029°16'0 0.0
2014-Sep-18 08:29N 40°50' E 029°16'0 0.0
2014-Sep-18 07:29N 40°50' E 029°16'0 0.0
2014-Sep-18 05:29N 40°50' E 029°16'0 0.0
2014-Sep-18 04:29N 40°50' E 029°16'0 0.0
2014-Sep-18 03:29N 40°50' E 029°16'0 0.0
2014-Sep-18 02:29N 40°50' E 029°16'0 0.0
2014-Sep-18 01:29N 40°50' E 029°16'0 0.0
2014-Sep-18 00:29N 40°50' E 029°16'0 0.0
2014-Sep-17 23:23N 40°50' E 029°16'0 0.0
2014-Sep-17 22:29N 40°50' E 029°16'0 0.0
2014-Sep-17 21:23N 40°50' E 029°16'0 0.0
2014-Sep-17 20:05N 40°50' E 029°16'0 0.0
2014-Sep-17 19:29N 40°50' E 029°16'0 0.0
2014-Sep-17 18:29N 40°50' E 029°16'0 0.0
2014-Sep-17 17:29N 40°50' E 029°16'0 0.0
2014-Sep-17 16:29N 40°50' E 029°16'0 0.0
2014-Sep-17 15:17N 40°50' E 029°16'0 0.0
2014-Sep-17 14:29N 40°50' E 029°16'0 0.0
2014-Sep-17 13:29N 40°50' E 029°16'0 0.0
2014-Sep-17 12:11N 40°50' E 029°16'0 0.0
2014-Sep-17 11:29N 40°50' E 029°16'0 0.0
2014-Sep-17 10:29N 40°50' E 029°16'0 0.0
2014-Sep-17 09:17N 40°50' E 029°16'0 0.0
2014-Sep-17 08:29N 40°50' E 029°16'0 0.0
2014-Sep-17 07:29N 40°50' E 029°16'0 0.0
2014-Sep-17 06:29N 40°50' E 029°16'0 0.0
2014-Sep-17 05:29N 40°50' E 029°16'0 0.0
2014-Sep-17 04:11N 40°50' E 029°16'0 0.0
2014-Sep-17 03:29N 40°50' E 029°16'0 0.0
2014-Sep-17 02:29N 40°50' E 029°16'0 0.0
2014-Sep-17 01:23N 40°50' E 029°16'0 0.0
2014-Sep-17 00:17N 40°50' E 029°16'0 0.0
2014-Sep-16 23:29N 40°50' E 029°16'0 0.0
2014-Sep-16 22:29N 40°50' E 029°16'0 0.0
2014-Sep-16 21:29N 40°50' E 029°16'0 0.0
2014-Sep-16 20:23N 40°50' E 029°16'0 0.0
2014-Sep-16 19:11N 40°50' E 029°16'0 0.0
2014-Sep-16 18:17N 40°50' E 029°16'0 0.0
2014-Sep-16 17:29N 40°50' E 029°16'0 0.0
2014-Sep-16 16:29N 40°50' E 029°16'0 0.0
2014-Sep-16 15:29N 40°50' E 029°16'0 0.0
2014-Sep-16 14:29N 40°50' E 029°16'0 0.0
2014-Sep-16 13:23N 40°50' E 029°16'0 0.0
2014-Sep-16 12:29N 40°50' E 029°16'0 0.0
2014-Sep-16 11:29N 40°50' E 029°16'0 0.0
2014-Sep-16 10:29N 40°50' E 029°16'0 0.0
2014-Sep-16 09:23N 40°50' E 029°16'0 0.0
2014-Sep-16 08:23N 40°50' E 029°16'0 0.0
2014-Sep-16 07:17N 40°50' E 029°16'0 0.0
2014-Sep-16 06:17N 40°50' E 029°16'0 0.0
2014-Sep-16 05:29N 40°50' E 029°16'0 0.0
2014-Sep-16 04:29N 40°50' E 029°16'0 0.0
2014-Sep-16 03:23N 40°50' E 029°16'0 0.0
2014-Sep-16 02:23N 40°50' E 029°16'0 0.0
2014-Sep-16 01:29N 40°50' E 029°16'0 0.0
2014-Sep-16 00:29N 40°50' E 029°16'0 0.0
2014-Sep-15 23:23N 40°50' E 029°16'0 0.0
2014-Sep-15 22:29N 40°50' E 029°16'0 0.0
2014-Sep-15 21:17N 40°50' E 029°16'0 0.0
2014-Sep-15 20:29N 40°50' E 029°16'0 0.0
2014-Sep-15 19:29N 40°50' E 029°16'0 0.0
2014-Sep-15 18:29N 40°50' E 029°16'0 0.0
2014-Sep-15 17:29N 40°50' E 029°16'0 0.0
2014-Sep-15 16:23N 40°50' E 029°16'0 0.0
2014-Sep-15 15:23N 40°50' E 029°16'0 0.0
2014-Sep-15 14:29N 40°50' E 029°16'0 0.0
2014-Sep-15 13:23N 40°50' E 029°16'0 0.0
2014-Sep-15 12:29N 40°50' E 029°16'0 0.0
2014-Sep-15 11:29N 40°50' E 029°16'0 0.0
2014-Sep-15 10:05N 40°50' E 029°16'0 0.0
2014-Sep-15 09:29N 40°50' E 029°16'0 0.0
2014-Sep-15 08:23N 40°50' E 029°16'0 0.0
2014-Sep-15 07:17N 40°50' E 029°16'0 0.0
2014-Sep-15 06:29N 40°50' E 029°16'0 0.0
2014-Sep-15 05:29N 40°50' E 029°16'0 0.0
2014-Sep-15 04:29N 40°50' E 029°16'0 0.0
2014-Sep-15 03:23N 40°50' E 029°16'0 0.0
2014-Sep-15 02:17N 40°50' E 029°16'0 0.0
2014-Sep-15 01:23N 40°50' E 029°16'0 0.0
2014-Sep-15 00:23N 40°50' E 029°16'0 0.0
2014-Sep-14 23:23N 40°50' E 029°16'0 0.0
2014-Sep-14 22:23N 40°50' E 029°16'0 0.0
2014-Sep-14 21:17N 40°50' E 029°16'0 0.0
2014-Sep-14 20:23N 40°50' E 029°16'0 0.0
2014-Sep-14 19:29N 40°50' E 029°16'0 0.0
2014-Sep-14 18:29N 40°50' E 029°16'0 0.0
2014-Sep-14 17:05N 40°50' E 029°16'0 0.0
2014-Sep-14 16:29N 40°50' E 029°16'0 0.0
2014-Sep-14 15:29N 40°50' E 029°16'0 0.0
2014-Sep-14 14:23N 40°50' E 029°16'0 0.0
2014-Sep-14 13:23N 40°50' E 029°16'0 0.0
2014-Sep-14 12:29N 40°50' E 029°16'0 0.0
2014-Sep-14 11:29N 40°50' E 029°16'0 0.0
2014-Sep-14 10:29N 40°50' E 029°16'0 0.0
2014-Sep-14 09:17N 40°50' E 029°16'0 0.0
2014-Sep-14 08:05N 40°50' E 029°16'0 0.0
2014-Sep-14 06:23N 40°50' E 029°16'0 0.0
2014-Sep-14 05:29N 40°50' E 029°16'0 0.0
2014-Sep-14 04:11N 40°50' E 029°16'0 0.0
2014-Sep-14 03:29N 40°50' E 029°16'0 0.0
2014-Sep-14 02:29N 40°50' E 029°16'0 0.0
2014-Sep-14 01:23N 40°50' E 029°16'0 0.0
2014-Sep-13 21:29N 40°50' E 029°16'0 0.0
2014-Sep-13 20:29N 40°50' E 029°16'0 0.0
2014-Sep-13 19:29N 40°50' E 029°16'0 0.0
2014-Sep-13 18:29N 40°50' E 029°16'0 0.0
2014-Sep-13 17:29N 40°50' E 029°16'0 0.0
2014-Sep-13 16:05N 40°50' E 029°16'0 0.0
2014-Sep-13 15:29N 40°50' E 029°16'0 0.0
2014-Sep-13 14:23N 40°50' E 029°16'0 0.0
2014-Sep-13 13:23N 40°50' E 029°16'  

Dump ship's entire track history